sensor_id;sensor_type;location;lat;lon;timestamp;P1;durP1;ratioP1;P2;durP2;ratioP2
8066;SDS011;4076;48.076;9.118;2023-02-08T00:01:35;19.50;;;10.60;;
8066;SDS011;4076;48.076;9.118;2023-02-08T00:04:00;11.13;;;8.43;;
8066;SDS011;4076;48.076;9.118;2023-02-08T00:06:26;15.03;;;9.20;;
8066;SDS011;4076;48.076;9.118;2023-02-08T00:08:52;15.60;;;8.80;;
8066;SDS011;4076;48.076;9.118;2023-02-08T00:11:17;15.73;;;8.40;;
8066;SDS011;4076;48.076;9.118;2023-02-08T00:13:43;18.20;;;11.47;;
8066;SDS011;4076;48.076;9.118;2023-02-08T00:16:09;19.23;;;9.33;;
8066;SDS011;4076;48.076;9.118;2023-02-08T00:18:36;12.43;;;9.57;;
8066;SDS011;4076;48.076;9.118;2023-02-08T00:21:05;18.13;;;9.30;;
8066;SDS011;4076;48.076;9.118;2023-02-08T00:23:35;11.17;;;7.97;;
8066;SDS011;4076;48.076;9.118;2023-02-08T00:26:01;15.47;;;8.20;;
8066;SDS011;4076;48.076;9.118;2023-02-08T00:28:27;12.40;;;8.47;;
8066;SDS011;4076;48.076;9.118;2023-02-08T00:30:53;16.20;;;8.67;;
8066;SDS011;4076;48.076;9.118;2023-02-08T00:33:18;10.47;;;7.20;;
8066;SDS011;4076;48.076;9.118;2023-02-08T00:35:44;14.63;;;7.60;;
8066;SDS011;4076;48.076;9.118;2023-02-08T00:38:10;10.07;;;6.60;;
8066;SDS011;4076;48.076;9.118;2023-02-08T00:40:35;9.80;;;8.07;;
8066;SDS011;4076;48.076;9.118;2023-02-08T00:43:01;12.60;;;7.90;;
8066;SDS011;4076;48.076;9.118;2023-02-08T00:45:27;18.30;;;8.93;;
8066;SDS011;4076;48.076;9.118;2023-02-08T00:47:53;17.60;;;9.87;;
8066;SDS011;4076;48.076;9.118;2023-02-08T00:50:18;11.63;;;7.40;;
8066;SDS011;4076;48.076;9.118;2023-02-08T00:52:44;17.03;;;10.57;;
8066;SDS011;4076;48.076;9.118;2023-02-08T00:55:10;10.07;;;6.63;;
8066;SDS011;4076;48.076;9.118;2023-02-08T00:57:35;16.87;;;9.70;;
8066;SDS011;4076;48.076;9.118;2023-02-08T01:00:01;9.03;;;6.17;;
8066;SDS011;4076;48.076;9.118;2023-02-08T01:02:28;16.50;;;8.30;;
8066;SDS011;4076;48.076;9.118;2023-02-08T01:04:54;13.00;;;6.70;;
8066;SDS011;4076;48.076;9.118;2023-02-08T01:07:19;17.63;;;8.20;;
8066;SDS011;4076;48.076;9.118;2023-02-08T01:09:45;14.43;;;8.23;;
8066;SDS011;4076;48.076;9.118;2023-02-08T01:12:10;11.47;;;7.30;;
8066;SDS011;4076;48.076;9.118;2023-02-08T01:14:37;16.97;;;8.73;;
8066;SDS011;4076;48.076;9.118;2023-02-08T01:17:03;8.80;;;6.77;;
8066;SDS011;4076;48.076;9.118;2023-02-08T01:19:29;18.33;;;7.67;;
8066;SDS011;4076;48.076;9.118;2023-02-08T01:21:54;11.07;;;6.90;;
8066;SDS011;4076;48.076;9.118;2023-02-08T01:24:20;13.67;;;8.70;;
8066;SDS011;4076;48.076;9.118;2023-02-08T01:26:46;13.10;;;7.70;;
8066;SDS011;4076;48.076;9.118;2023-02-08T01:29:11;17.27;;;8.03;;
8066;SDS011;4076;48.076;9.118;2023-02-08T01:31:38;13.53;;;7.63;;
8066;SDS011;4076;48.076;9.118;2023-02-08T01:34:05;9.90;;;7.00;;
8066;SDS011;4076;48.076;9.118;2023-02-08T01:36:32;12.70;;;8.40;;
8066;SDS011;4076;48.076;9.118;2023-02-08T01:38:59;16.40;;;8.17;;
8066;SDS011;4076;48.076;9.118;2023-02-08T01:41:26;10.70;;;7.83;;
8066;SDS011;4076;48.076;9.118;2023-02-08T01:46:25;11.17;;;6.23;;
8066;SDS011;4076;48.076;9.118;2023-02-08T01:48:51;13.70;;;9.17;;
8066;SDS011;4076;48.076;9.118;2023-02-08T01:51:19;14.20;;;6.70;;
8066;SDS011;4076;48.076;9.118;2023-02-08T01:53:47;15.13;;;7.63;;
8066;SDS011;4076;48.076;9.118;2023-02-08T01:56:26;12.97;;;7.50;;
8066;SDS011;4076;48.076;9.118;2023-02-08T01:58:56;13.23;;;7.53;;
8066;SDS011;4076;48.076;9.118;2023-02-08T02:01:25;15.13;;;7.83;;
8066;SDS011;4076;48.076;9.118;2023-02-08T02:03:54;13.80;;;7.07;;
8066;SDS011;4076;48.076;9.118;2023-02-08T02:06:21;15.10;;;7.57;;
8066;SDS011;4076;48.076;9.118;2023-02-08T02:08:54;12.37;;;7.10;;
8066;SDS011;4076;48.076;9.118;2023-02-08T02:11:27;13.47;;;6.77;;
8066;SDS011;4076;48.076;9.118;2023-02-08T02:13:53;16.57;;;7.90;;
8066;SDS011;4076;48.076;9.118;2023-02-08T02:16:19;15.33;;;8.67;;
8066;SDS011;4076;48.076;9.118;2023-02-08T02:18:45;8.47;;;6.27;;
8066;SDS011;4076;48.076;9.118;2023-02-08T02:21:18;14.60;;;8.13;;
8066;SDS011;4076;48.076;9.118;2023-02-08T02:35:25;11.77;;;8.30;;
8066;SDS011;4076;48.076;9.118;2023-02-08T02:43:01;10.43;;;6.00;;
8066;SDS011;4076;48.076;9.118;2023-02-08T02:46:14;12.83;;;7.50;;
8066;SDS011;4076;48.076;9.118;2023-02-08T02:49:04;12.30;;;6.97;;
8066;SDS011;4076;48.076;9.118;2023-02-08T02:51:48;10.47;;;5.77;;
8066;SDS011;4076;48.076;9.118;2023-02-08T02:54:19;14.73;;;7.50;;
8066;SDS011;4076;48.076;9.118;2023-02-08T02:56:49;25.30;;;8.10;;
8066;SDS011;4076;48.076;9.118;2023-02-08T02:59:19;13.90;;;7.53;;
8066;SDS011;4076;48.076;9.118;2023-02-08T03:01:46;14.47;;;8.17;;
8066;SDS011;4076;48.076;9.118;2023-02-08T03:04:46;12.17;;;6.17;;
8066;SDS011;4076;48.076;9.118;2023-02-08T03:07:15;10.97;;;6.63;;
8066;SDS011;4076;48.076;9.118;2023-02-08T03:12:57;15.20;;;7.43;;
8066;SDS011;4076;48.076;9.118;2023-02-08T03:21:19;11.27;;;7.30;;
8066;SDS011;4076;48.076;9.118;2023-02-08T03:23:59;13.83;;;6.90;;
8066;SDS011;4076;48.076;9.118;2023-02-08T03:26:35;9.90;;;5.60;;
8066;SDS011;4076;48.076;9.118;2023-02-08T03:31:52;14.63;;;6.43;;
8066;SDS011;4076;48.076;9.118;2023-02-08T03:34:32;11.00;;;6.77;;
8066;SDS011;4076;48.076;9.118;2023-02-08T03:37:09;14.07;;;6.83;;
8066;SDS011;4076;48.076;9.118;2023-02-08T03:39:47;7.57;;;5.23;;
8066;SDS011;4076;48.076;9.118;2023-02-08T03:42:20;16.23;;;8.47;;
8066;SDS011;4076;48.076;9.118;2023-02-08T03:44:53;12.23;;;6.53;;
8066;SDS011;4076;48.076;9.118;2023-02-08T03:47:26;11.50;;;5.97;;
8066;SDS011;4076;48.076;9.118;2023-02-08T03:49:55;10.97;;;6.47;;
8066;SDS011;4076;48.076;9.118;2023-02-08T03:52:24;13.93;;;7.07;;
8066;SDS011;4076;48.076;9.118;2023-02-08T03:54:53;12.83;;;7.17;;
8066;SDS011;4076;48.076;9.118;2023-02-08T03:57:23;9.73;;;5.90;;
8066;SDS011;4076;48.076;9.118;2023-02-08T03:59:54;14.20;;;6.90;;
8066;SDS011;4076;48.076;9.118;2023-02-08T04:02:26;11.60;;;7.77;;
8066;SDS011;4076;48.076;9.118;2023-02-08T04:04:55;12.93;;;6.80;;
8066;SDS011;4076;48.076;9.118;2023-02-08T04:07:22;10.20;;;7.30;;
8066;SDS011;4076;48.076;9.118;2023-02-08T04:09:48;15.07;;;6.93;;
8066;SDS011;4076;48.076;9.118;2023-02-08T04:12:14;12.13;;;7.70;;
8066;SDS011;4076;48.076;9.118;2023-02-08T04:14:39;20.57;;;9.60;;
8066;SDS011;4076;48.076;9.118;2023-02-08T04:17:05;13.43;;;7.13;;
8066;SDS011;4076;48.076;9.118;2023-02-08T04:19:31;9.93;;;6.60;;
8066;SDS011;4076;48.076;9.118;2023-02-08T04:21:56;13.43;;;6.90;;
8066;SDS011;4076;48.076;9.118;2023-02-08T04:24:22;17.50;;;9.80;;
8066;SDS011;4076;48.076;9.118;2023-02-08T04:26:48;9.90;;;6.57;;
8066;SDS011;4076;48.076;9.118;2023-02-08T04:29:13;12.93;;;8.60;;
8066;SDS011;4076;48.076;9.118;2023-02-08T04:31:40;11.70;;;7.60;;
8066;SDS011;4076;48.076;9.118;2023-02-08T04:34:06;14.73;;;8.27;;
8066;SDS011;4076;48.076;9.118;2023-02-08T04:36:31;10.17;;;8.60;;
8066;SDS011;4076;48.076;9.118;2023-02-08T04:38:57;14.17;;;7.50;;
8066;SDS011;4076;48.076;9.118;2023-02-08T04:41:23;10.83;;;7.57;;
8066;SDS011;4076;48.076;9.118;2023-02-08T04:43:48;13.87;;;7.73;;
8066;SDS011;4076;48.076;9.118;2023-02-08T04:46:14;11.03;;;7.97;;
8066;SDS011;4076;48.076;9.118;2023-02-08T04:48:40;14.73;;;7.37;;
8066;SDS011;4076;48.076;9.118;2023-02-08T04:51:05;19.73;;;8.80;;
8066;SDS011;4076;48.076;9.118;2023-02-08T04:53:31;13.37;;;8.23;;
8066;SDS011;4076;48.076;9.118;2023-02-08T04:55:56;13.90;;;8.27;;
8066;SDS011;4076;48.076;9.118;2023-02-08T04:58:22;13.20;;;7.73;;
8066;SDS011;4076;48.076;9.118;2023-02-08T05:00:48;14.77;;;8.20;;
8066;SDS011;4076;48.076;9.118;2023-02-08T05:03:13;18.80;;;8.80;;
8066;SDS011;4076;48.076;9.118;2023-02-08T05:05:39;14.47;;;8.83;;
8066;SDS011;4076;48.076;9.118;2023-02-08T05:08:05;9.87;;;6.27;;
8066;SDS011;4076;48.076;9.118;2023-02-08T05:10:31;11.23;;;6.60;;
8066;SDS011;4076;48.076;9.118;2023-02-08T05:12:57;17.73;;;9.57;;
8066;SDS011;4076;48.076;9.118;2023-02-08T05:15:22;14.13;;;8.13;;
8066;SDS011;4076;48.076;9.118;2023-02-08T05:17:48;15.23;;;7.40;;
8066;SDS011;4076;48.076;9.118;2023-02-08T05:20:14;15.07;;;8.53;;
8066;SDS011;4076;48.076;9.118;2023-02-08T05:22:39;13.77;;;8.50;;
8066;SDS011;4076;48.076;9.118;2023-02-08T05:25:05;25.53;;;12.77;;
8066;SDS011;4076;48.076;9.118;2023-02-08T05:27:32;21.47;;;12.90;;
8066;SDS011;4076;48.076;9.118;2023-02-08T05:29:58;22.37;;;13.30;;
8066;SDS011;4076;48.076;9.118;2023-02-08T05:32:24;24.67;;;12.47;;
8066;SDS011;4076;48.076;9.118;2023-02-08T05:34:50;17.67;;;10.13;;
8066;SDS011;4076;48.076;9.118;2023-02-08T05:37:16;18.77;;;10.53;;
8066;SDS011;4076;48.076;9.118;2023-02-08T05:39:41;22.17;;;12.20;;
8066;SDS011;4076;48.076;9.118;2023-02-08T05:42:07;19.20;;;11.63;;
8066;SDS011;4076;48.076;9.118;2023-02-08T05:44:32;20.53;;;10.67;;
8066;SDS011;4076;48.076;9.118;2023-02-08T05:46:58;22.13;;;11.53;;
8066;SDS011;4076;48.076;9.118;2023-02-08T05:49:23;15.43;;;10.43;;
8066;SDS011;4076;48.076;9.118;2023-02-08T05:51:49;23.90;;;13.60;;
8066;SDS011;4076;48.076;9.118;2023-02-08T05:54:15;19.00;;;11.67;;
8066;SDS011;4076;48.076;9.118;2023-02-08T05:56:41;18.63;;;11.70;;
8066;SDS011;4076;48.076;9.118;2023-02-08T05:59:07;24.07;;;13.70;;
8066;SDS011;4076;48.076;9.118;2023-02-08T06:01:34;29.20;;;14.03;;
8066;SDS011;4076;48.076;9.118;2023-02-08T06:03:59;21.43;;;13.33;;
8066;SDS011;4076;48.076;9.118;2023-02-08T06:06:25;22.00;;;13.30;;
8066;SDS011;4076;48.076;9.118;2023-02-08T06:08:51;26.13;;;14.67;;
8066;SDS011;4076;48.076;9.118;2023-02-08T06:11:17;19.13;;;13.73;;
8066;SDS011;4076;48.076;9.118;2023-02-08T06:13:43;22.17;;;12.80;;
8066;SDS011;4076;48.076;9.118;2023-02-08T06:16:10;20.83;;;13.10;;
8066;SDS011;4076;48.076;9.118;2023-02-08T06:18:36;32.93;;;15.87;;
8066;SDS011;4076;48.076;9.118;2023-02-08T06:21:02;25.60;;;16.40;;
8066;SDS011;4076;48.076;9.118;2023-02-08T06:23:28;33.17;;;16.90;;
8066;SDS011;4076;48.076;9.118;2023-02-08T06:25:54;33.30;;;16.97;;
8066;SDS011;4076;48.076;9.118;2023-02-08T06:28:19;24.70;;;16.53;;
8066;SDS011;4076;48.076;9.118;2023-02-08T06:30:47;28.60;;;15.27;;
8066;SDS011;4076;48.076;9.118;2023-02-08T06:33:13;28.73;;;14.50;;
8066;SDS011;4076;48.076;9.118;2023-02-08T06:35:39;25.83;;;15.33;;
8066;SDS011;4076;48.076;9.118;2023-02-08T06:38:04;21.80;;;12.33;;
8066;SDS011;4076;48.076;9.118;2023-02-08T06:40:30;28.10;;;16.13;;
8066;SDS011;4076;48.076;9.118;2023-02-08T06:42:55;28.13;;;14.40;;
8066;SDS011;4076;48.076;9.118;2023-02-08T06:45:21;24.27;;;13.00;;
8066;SDS011;4076;48.076;9.118;2023-02-08T06:47:46;24.30;;;15.93;;
8066;SDS011;4076;48.076;9.118;2023-02-08T06:50:12;24.80;;;13.40;;
8066;SDS011;4076;48.076;9.118;2023-02-08T06:52:39;30.43;;;15.30;;
8066;SDS011;4076;48.076;9.118;2023-02-08T06:55:04;24.90;;;16.10;;
8066;SDS011;4076;48.076;9.118;2023-02-08T06:57:30;31.13;;;15.63;;
8066;SDS011;4076;48.076;9.118;2023-02-08T06:59:56;17.53;;;11.23;;
8066;SDS011;4076;48.076;9.118;2023-02-08T07:02:21;25.00;;;14.60;;
8066;SDS011;4076;48.076;9.118;2023-02-08T07:04:47;32.50;;;15.33;;
8066;SDS011;4076;48.076;9.118;2023-02-08T07:07:13;26.73;;;13.00;;
8066;SDS011;4076;48.076;9.118;2023-02-08T07:09:40;23.07;;;13.27;;
8066;SDS011;4076;48.076;9.118;2023-02-08T07:12:05;22.37;;;16.60;;
8066;SDS011;4076;48.076;9.118;2023-02-08T07:14:35;22.33;;;13.53;;
8066;SDS011;4076;48.076;9.118;2023-02-08T07:17:04;29.17;;;15.37;;
8066;SDS011;4076;48.076;9.118;2023-02-08T07:19:29;28.17;;;16.33;;
8066;SDS011;4076;48.076;9.118;2023-02-08T07:21:56;32.97;;;20.10;;
8066;SDS011;4076;48.076;9.118;2023-02-08T07:24:27;25.40;;;13.47;;
8066;SDS011;4076;48.076;9.118;2023-02-08T07:26:52;24.47;;;12.50;;
8066;SDS011;4076;48.076;9.118;2023-02-08T07:29:18;22.73;;;14.63;;
8066;SDS011;4076;48.076;9.118;2023-02-08T07:31:43;22.70;;;13.40;;
8066;SDS011;4076;48.076;9.118;2023-02-08T07:34:09;24.07;;;14.50;;
8066;SDS011;4076;48.076;9.118;2023-02-08T07:36:34;23.60;;;15.30;;
8066;SDS011;4076;48.076;9.118;2023-02-08T07:39:00;24.63;;;13.10;;
8066;SDS011;4076;48.076;9.118;2023-02-08T07:41:26;20.43;;;12.83;;
8066;SDS011;4076;48.076;9.118;2023-02-08T07:43:52;20.00;;;13.90;;
8066;SDS011;4076;48.076;9.118;2023-02-08T07:46:19;23.30;;;14.73;;
8066;SDS011;4076;48.076;9.118;2023-02-08T07:48:45;20.17;;;12.90;;
8066;SDS011;4076;48.076;9.118;2023-02-08T07:51:13;21.37;;;14.00;;
8066;SDS011;4076;48.076;9.118;2023-02-08T07:53:38;22.83;;;13.83;;
8066;SDS011;4076;48.076;9.118;2023-02-08T07:56:04;19.93;;;12.77;;
8066;SDS011;4076;48.076;9.118;2023-02-08T07:58:30;17.20;;;12.00;;
8066;SDS011;4076;48.076;9.118;2023-02-08T08:00:57;20.90;;;14.00;;
8066;SDS011;4076;48.076;9.118;2023-02-08T08:03:23;20.30;;;13.30;;
8066;SDS011;4076;48.076;9.118;2023-02-08T08:05:49;23.20;;;12.10;;
8066;SDS011;4076;48.076;9.118;2023-02-08T08:08:15;20.10;;;15.43;;
8066;SDS011;4076;48.076;9.118;2023-02-08T08:10:41;14.40;;;11.47;;
8066;SDS011;4076;48.076;9.118;2023-02-08T08:13:06;14.53;;;13.10;;
8066;SDS011;4076;48.076;9.118;2023-02-08T08:15:32;17.30;;;12.93;;
8066;SDS011;4076;48.076;9.118;2023-02-08T08:17:58;16.73;;;13.17;;
8066;SDS011;4076;48.076;9.118;2023-02-08T08:20:23;14.70;;;11.27;;
8066;SDS011;4076;48.076;9.118;2023-02-08T08:22:49;11.60;;;9.83;;
8066;SDS011;4076;48.076;9.118;2023-02-08T08:25:23;13.37;;;9.83;;
8066;SDS011;4076;48.076;9.118;2023-02-08T08:27:51;10.17;;;9.27;;
8066;SDS011;4076;48.076;9.118;2023-02-08T08:30:16;12.57;;;11.30;;
8066;SDS011;4076;48.076;9.118;2023-02-08T08:32:42;13.23;;;9.90;;
8066;SDS011;4076;48.076;9.118;2023-02-08T08:35:08;12.37;;;11.00;;
8066;SDS011;4076;48.076;9.118;2023-02-08T08:37:35;11.70;;;9.80;;
8066;SDS011;4076;48.076;9.118;2023-02-08T08:40:01;13.53;;;11.00;;
8066;SDS011;4076;48.076;9.118;2023-02-08T08:42:27;9.80;;;8.67;;
8066;SDS011;4076;48.076;9.118;2023-02-08T08:44:53;11.60;;;10.40;;
8066;SDS011;4076;48.076;9.118;2023-02-08T08:47:19;11.80;;;10.53;;
8066;SDS011;4076;48.076;9.118;2023-02-08T08:49:44;9.03;;;8.13;;
8066;SDS011;4076;48.076;9.118;2023-02-08T08:52:10;12.47;;;10.50;;
8066;SDS011;4076;48.076;9.118;2023-02-08T08:54:37;10.70;;;8.60;;
8066;SDS011;4076;48.076;9.118;2023-02-08T08:57:03;12.13;;;10.33;;
8066;SDS011;4076;48.076;9.118;2023-02-08T08:59:29;9.93;;;8.93;;
8066;SDS011;4076;48.076;9.118;2023-02-08T09:01:54;9.33;;;8.33;;
8066;SDS011;4076;48.076;9.118;2023-02-08T09:04:20;10.83;;;9.23;;
8066;SDS011;4076;48.076;9.118;2023-02-08T09:06:48;12.00;;;10.93;;
8066;SDS011;4076;48.076;9.118;2023-02-08T09:09:15;11.77;;;10.67;;
8066;SDS011;4076;48.076;9.118;2023-02-08T09:11:41;10.70;;;9.63;;
8066;SDS011;4076;48.076;9.118;2023-02-08T09:14:06;9.13;;;8.23;;
8066;SDS011;4076;48.076;9.118;2023-02-08T09:16:32;10.40;;;9.30;;
8066;SDS011;4076;48.076;9.118;2023-02-08T09:19:02;9.90;;;8.93;;
8066;SDS011;4076;48.076;9.118;2023-02-08T09:21:28;11.40;;;8.77;;
8066;SDS011;4076;48.076;9.118;2023-02-08T09:23:54;12.10;;;8.37;;
8066;SDS011;4076;48.076;9.118;2023-02-08T09:26:19;10.60;;;8.97;;
8066;SDS011;4076;48.076;9.118;2023-02-08T09:28:48;11.70;;;10.50;;
8066;SDS011;4076;48.076;9.118;2023-02-08T09:31:17;10.27;;;9.30;;
8066;SDS011;4076;48.076;9.118;2023-02-08T09:33:43;10.63;;;8.73;;
8066;SDS011;4076;48.076;9.118;2023-02-08T09:36:08;13.10;;;10.67;;
8066;SDS011;4076;48.076;9.118;2023-02-08T09:38:35;9.67;;;8.60;;
8066;SDS011;4076;48.076;9.118;2023-02-08T09:46:11;9.80;;;8.53;;
8066;SDS011;4076;48.076;9.118;2023-02-08T09:48:45;10.47;;;9.37;;
8066;SDS011;4076;48.076;9.118;2023-02-08T09:53:47;11.27;;;8.97;;
8066;SDS011;4076;48.076;9.118;2023-02-08T09:56:21;9.97;;;8.97;;
8066;SDS011;4076;48.076;9.118;2023-02-08T09:58:53;9.47;;;8.57;;
8066;SDS011;4076;48.076;9.118;2023-02-08T10:03:56;11.23;;;8.83;;
8066;SDS011;4076;48.076;9.118;2023-02-08T10:06:25;9.47;;;8.47;;
8066;SDS011;4076;48.076;9.118;2023-02-08T10:08:51;14.80;;;10.57;;
8066;SDS011;4076;48.076;9.118;2023-02-08T10:11:27;10.23;;;8.50;;
8066;SDS011;4076;48.076;9.118;2023-02-08T10:25:34;9.73;;;8.43;;
8066;SDS011;4076;48.076;9.118;2023-02-08T10:33:25;12.90;;;8.80;;
8066;SDS011;4076;48.076;9.118;2023-02-08T10:35:56;10.40;;;8.70;;
8066;SDS011;4076;48.076;9.118;2023-02-08T10:40:54;12.83;;;8.17;;
8066;SDS011;4076;48.076;9.118;2023-02-08T10:46:10;9.80;;;7.40;;
8066;SDS011;4076;48.076;9.118;2023-02-08T10:48:59;11.07;;;9.50;;
8066;SDS011;4076;48.076;9.118;2023-02-08T10:51:49;12.43;;;9.60;;
8066;SDS011;4076;48.076;9.118;2023-02-08T10:54:16;11.70;;;7.70;;
8066;SDS011;4076;48.076;9.118;2023-02-08T10:56:43;11.20;;;7.70;;
8066;SDS011;4076;48.076;9.118;2023-02-08T10:59:45;11.27;;;8.63;;
8066;SDS011;4076;48.076;9.118;2023-02-08T11:02:21;9.30;;;7.33;;
8066;SDS011;4076;48.076;9.118;2023-02-08T11:05:04;10.80;;;7.57;;
8066;SDS011;4076;48.076;9.118;2023-02-08T11:07:35;12.40;;;8.50;;
8066;SDS011;4076;48.076;9.118;2023-02-08T11:10:43;12.40;;;9.13;;
8066;SDS011;4076;48.076;9.118;2023-02-08T11:12:54;10.27;;;8.57;;
8066;SDS011;4076;48.076;9.118;2023-02-08T11:17:54;10.80;;;8.40;;
8066;SDS011;4076;48.076;9.118;2023-02-08T11:20:27;12.47;;;8.10;;
8066;SDS011;4076;48.076;9.118;2023-02-08T11:23:03;12.17;;;8.70;;
8066;SDS011;4076;48.076;9.118;2023-02-08T11:25:40;11.50;;;9.20;;
8066;SDS011;4076;48.076;9.118;2023-02-08T11:28:08;9.80;;;8.80;;
8066;SDS011;4076;48.076;9.118;2023-02-08T11:31:00;12.97;;;9.67;;
8066;SDS011;4076;48.076;9.118;2023-02-08T11:33:28;11.90;;;8.33;;
8066;SDS011;4076;48.076;9.118;2023-02-08T11:35:58;12.90;;;9.13;;
8066;SDS011;4076;48.076;9.118;2023-02-08T11:38:26;10.30;;;9.20;;
8066;SDS011;4076;48.076;9.118;2023-02-08T11:40:56;10.07;;;8.77;;
8066;SDS011;4076;48.076;9.118;2023-02-08T11:43:29;10.20;;;8.97;;
8066;SDS011;4076;48.076;9.118;2023-02-08T11:45:57;10.80;;;9.13;;
8066;SDS011;4076;48.076;9.118;2023-02-08T11:48:26;18.20;;;10.90;;
8066;SDS011;4076;48.076;9.118;2023-02-08T11:51:03;10.87;;;9.50;;
8066;SDS011;4076;48.076;9.118;2023-02-08T11:53:35;15.17;;;11.20;;
8066;SDS011;4076;48.076;9.118;2023-02-08T11:56:18;12.50;;;9.43;;
8066;SDS011;4076;48.076;9.118;2023-02-08T12:01:27;12.73;;;9.87;;
8066;SDS011;4076;48.076;9.118;2023-02-08T12:03:55;18.83;;;11.47;;
8066;SDS011;4076;48.076;9.118;2023-02-08T12:06:43;11.63;;;9.50;;
8066;SDS011;4076;48.076;9.118;2023-02-08T12:13:02;13.30;;;11.17;;
8066;SDS011;4076;48.076;9.118;2023-02-08T12:18:31;11.93;;;8.83;;
8066;SDS011;4076;48.076;9.118;2023-02-08T12:21:03;12.93;;;10.20;;
8066;SDS011;4076;48.076;9.118;2023-02-08T12:23:41;15.00;;;9.90;;
8066;SDS011;4076;48.076;9.118;2023-02-08T12:34:45;26.03;;;12.50;;
8066;SDS011;4076;48.076;9.118;2023-02-08T12:40:27;18.40;;;11.60;;
8066;SDS011;4076;48.076;9.118;2023-02-08T12:46:21;15.93;;;10.93;;
8066;SDS011;4076;48.076;9.118;2023-02-08T12:54:59;20.40;;;11.30;;
8066;SDS011;4076;48.076;9.118;2023-02-08T12:57:33;13.33;;;9.83;;
8066;SDS011;4076;48.076;9.118;2023-02-08T13:00:05;15.17;;;9.73;;
8066;SDS011;4076;48.076;9.118;2023-02-08T13:02:42;14.73;;;11.30;;
8066;SDS011;4076;48.076;9.118;2023-02-08T13:05:18;13.67;;;9.70;;
8066;SDS011;4076;48.076;9.118;2023-02-08T13:07:46;16.27;;;10.13;;
8066;SDS011;4076;48.076;9.118;2023-02-08T13:12:55;13.90;;;9.90;;
8066;SDS011;4076;48.076;9.118;2023-02-08T13:15:35;14.80;;;10.30;;
8066;SDS011;4076;48.076;9.118;2023-02-08T13:18:11;12.90;;;10.00;;
8066;SDS011;4076;48.076;9.118;2023-02-08T13:20:42;13.80;;;10.00;;
8066;SDS011;4076;48.076;9.118;2023-02-08T13:23:19;12.43;;;9.40;;
8066;SDS011;4076;48.076;9.118;2023-02-08T13:25:48;41.80;;;25.70;;
8066;SDS011;4076;48.076;9.118;2023-02-08T13:28:23;14.07;;;9.73;;
8066;SDS011;4076;48.076;9.118;2023-02-08T13:33:32;18.83;;;9.00;;
8066;SDS011;4076;48.076;9.118;2023-02-08T13:36:41;13.60;;;10.60;;
8066;SDS011;4076;48.076;9.118;2023-02-08T13:39:56;14.93;;;11.10;;
8066;SDS011;4076;48.076;9.118;2023-02-08T13:42:06;14.10;;;9.40;;
8066;SDS011;4076;48.076;9.118;2023-02-08T13:44:43;15.03;;;9.10;;
8066;SDS011;4076;48.076;9.118;2023-02-08T13:47:21;15.77;;;9.80;;
8066;SDS011;4076;48.076;9.118;2023-02-08T13:50:01;15.87;;;10.30;;
8066;SDS011;4076;48.076;9.118;2023-02-08T14:03:21;19.67;;;15.20;;
8066;SDS011;4076;48.076;9.118;2023-02-08T14:05:48;18.13;;;11.37;;
8066;SDS011;4076;48.076;9.118;2023-02-08T14:13:27;23.77;;;16.43;;
8066;SDS011;4076;48.076;9.118;2023-02-08T14:21:31;12.93;;;9.20;;
8066;SDS011;4076;48.076;9.118;2023-02-08T14:24:06;20.37;;;13.30;;
8066;SDS011;4076;48.076;9.118;2023-02-08T14:26:44;14.97;;;11.30;;
8066;SDS011;4076;48.076;9.118;2023-02-08T14:29:15;21.20;;;11.43;;
8066;SDS011;4076;48.076;9.118;2023-02-08T14:31:46;14.40;;;10.40;;
8066;SDS011;4076;48.076;9.118;2023-02-08T14:34:25;15.70;;;11.50;;
8066;SDS011;4076;48.076;9.118;2023-02-08T14:40:22;18.03;;;10.90;;
8066;SDS011;4076;48.076;9.118;2023-02-08T14:43:04;21.88;;;13.88;;
8066;SDS011;4076;48.076;9.118;2023-02-08T14:49:01;26.00;;;14.37;;
8066;SDS011;4076;48.076;9.118;2023-02-08T14:51:33;16.10;;;12.70;;
8066;SDS011;4076;48.076;9.118;2023-02-08T14:54:05;16.20;;;12.53;;
8066;SDS011;4076;48.076;9.118;2023-02-08T14:56:53;15.90;;;11.10;;
8066;SDS011;4076;48.076;9.118;2023-02-08T14:59:25;20.13;;;11.87;;
8066;SDS011;4076;48.076;9.118;2023-02-08T15:02:01;19.17;;;11.30;;
8066;SDS011;4076;48.076;9.118;2023-02-08T15:04:40;20.73;;;11.17;;
8066;SDS011;4076;48.076;9.118;2023-02-08T15:07:18;17.90;;;10.47;;
8066;SDS011;4076;48.076;9.118;2023-02-08T15:09:46;27.10;;;16.03;;
8066;SDS011;4076;48.076;9.118;2023-02-08T15:12:23;20.37;;;12.67;;
8066;SDS011;4076;48.076;9.118;2023-02-08T15:15:02;18.93;;;13.00;;
8066;SDS011;4076;48.076;9.118;2023-02-08T15:17:44;21.93;;;14.53;;
8066;SDS011;4076;48.076;9.118;2023-02-08T15:20:16;20.13;;;13.90;;
8066;SDS011;4076;48.076;9.118;2023-02-08T15:23:00;20.93;;;11.83;;
8066;SDS011;4076;48.076;9.118;2023-02-08T15:25:31;21.20;;;12.57;;
8066;SDS011;4076;48.076;9.118;2023-02-08T15:28:20;19.47;;;13.10;;
8066;SDS011;4076;48.076;9.118;2023-02-08T15:33:21;21.10;;;11.83;;
8066;SDS011;4076;48.076;9.118;2023-02-08T15:35:54;25.70;;;13.47;;
8066;SDS011;4076;48.076;9.118;2023-02-08T15:38:25;24.67;;;15.00;;
8066;SDS011;4076;48.076;9.118;2023-02-08T15:40:59;17.57;;;12.00;;
8066;SDS011;4076;48.076;9.118;2023-02-08T15:43:36;19.73;;;14.10;;
8066;SDS011;4076;48.076;9.118;2023-02-08T15:46:04;20.03;;;12.67;;
8066;SDS011;4076;48.076;9.118;2023-02-08T15:48:31;21.07;;;12.00;;
8066;SDS011;4076;48.076;9.118;2023-02-08T15:50:59;17.93;;;11.40;;
8066;SDS011;4076;48.076;9.118;2023-02-08T15:53:26;24.53;;;16.43;;
8066;SDS011;4076;48.076;9.118;2023-02-08T15:55:55;26.07;;;13.13;;
8066;SDS011;4076;48.076;9.118;2023-02-08T15:58:34;21.80;;;16.53;;
8066;SDS011;4076;48.076;9.118;2023-02-08T16:01:03;25.33;;;16.07;;
8066;SDS011;4076;48.076;9.118;2023-02-08T16:03:30;17.50;;;13.23;;
8066;SDS011;4076;48.076;9.118;2023-02-08T16:05:58;22.30;;;14.20;;
8066;SDS011;4076;48.076;9.118;2023-02-08T16:08:27;27.00;;;14.53;;
8066;SDS011;4076;48.076;9.118;2023-02-08T16:10:58;21.30;;;12.33;;
8066;SDS011;4076;48.076;9.118;2023-02-08T16:13:28;21.13;;;12.07;;
8066;SDS011;4076;48.076;9.118;2023-02-08T16:15:57;19.97;;;12.47;;
8066;SDS011;4076;48.076;9.118;2023-02-08T16:18:40;24.73;;;15.03;;
8066;SDS011;4076;48.076;9.118;2023-02-08T16:26:55;17.60;;;11.80;;
8066;SDS011;4076;48.076;9.118;2023-02-08T16:29:28;31.37;;;19.57;;
8066;SDS011;4076;48.076;9.118;2023-02-08T16:31:58;20.13;;;12.40;;
8066;SDS011;4076;48.076;9.118;2023-02-08T16:34:34;20.77;;;13.47;;
8066;SDS011;4076;48.076;9.118;2023-02-08T16:37:03;18.50;;;11.40;;
8066;SDS011;4076;48.076;9.118;2023-02-08T16:39:34;22.13;;;14.00;;
8066;SDS011;4076;48.076;9.118;2023-02-08T16:42:45;22.73;;;13.00;;
8066;SDS011;4076;48.076;9.118;2023-02-08T16:47:47;24.73;;;13.50;;
8066;SDS011;4076;48.076;9.118;2023-02-08T16:50:18;23.93;;;16.50;;
8066;SDS011;4076;48.076;9.118;2023-02-08T16:52:52;24.83;;;14.43;;
8066;SDS011;4076;48.076;9.118;2023-02-08T16:55:21;27.97;;;14.10;;
8066;SDS011;4076;48.076;9.118;2023-02-08T16:57:52;22.43;;;12.17;;
8066;SDS011;4076;48.076;9.118;2023-02-08T17:02:50;24.13;;;14.67;;
8066;SDS011;4076;48.076;9.118;2023-02-08T17:05:16;18.17;;;12.93;;
8066;SDS011;4076;48.076;9.118;2023-02-08T17:07:43;24.93;;;13.20;;
8066;SDS011;4076;48.076;9.118;2023-02-08T17:10:13;21.80;;;12.27;;
8066;SDS011;4076;48.076;9.118;2023-02-08T17:12:59;25.53;;;15.70;;
8066;SDS011;4076;48.076;9.118;2023-02-08T17:15:25;24.20;;;14.10;;
8066;SDS011;4076;48.076;9.118;2023-02-08T17:17:52;23.63;;;13.43;;
8066;SDS011;4076;48.076;9.118;2023-02-08T17:20:29;22.07;;;18.77;;
8066;SDS011;4076;48.076;9.118;2023-02-08T17:22:57;29.60;;;13.77;;
8066;SDS011;4076;48.076;9.118;2023-02-08T17:25:24;22.27;;;14.73;;
8066;SDS011;4076;48.076;9.118;2023-02-08T17:27:54;24.40;;;17.57;;
8066;SDS011;4076;48.076;9.118;2023-02-08T17:33:00;23.40;;;16.10;;
8066;SDS011;4076;48.076;9.118;2023-02-08T17:35:27;35.83;;;21.13;;
8066;SDS011;4076;48.076;9.118;2023-02-08T17:37:54;34.23;;;21.20;;